createdAt,value
2023-01-03T00:01:59.738Z,83.03
2023-01-03T00:04:26.581Z,83.23
2023-01-03T00:06:54.189Z,83.11
2023-01-03T00:09:23.101Z,83.09
2023-01-03T00:12:10.157Z,83.08
2023-01-03T00:14:39.331Z,83.13
2023-01-03T00:17:08.505Z,83.54
2023-01-03T00:19:41.228Z,83.26
2023-01-03T00:22:08.313Z,83.52
2023-01-03T00:24:34.972Z,83.58
2023-01-03T00:27:01.550Z,84.08
2023-01-03T00:29:28.357Z,83.99
2023-01-03T00:31:55.250Z,83.81
2023-01-03T00:34:21.685Z,84.11
2023-01-03T00:36:48.153Z,83.77
2023-01-03T00:39:14.870Z,84.16
2023-01-03T00:41:41.779Z,83.40
2023-01-03T00:44:08.726Z,83.51
2023-01-03T00:46:35.810Z,83.54
2023-01-03T00:49:03.315Z,83.54
2023-01-03T00:51:32.391Z,83.27
2023-01-03T00:54:00.262Z,82.59
2023-01-03T00:56:29.216Z,83.27
2023-01-03T00:58:56.231Z,83.13
2023-01-03T01:01:39.196Z,82.79
2023-01-03T01:04:13.920Z,82.90
2023-01-03T01:06:43.351Z,83.13
2023-01-03T01:09:15.622Z,82.93
2023-01-03T01:11:42.477Z,82.76
2023-01-03T01:14:19.924Z,83.03
2023-01-03T01:16:52.488Z,82.75
2023-01-03T01:19:22.123Z,83.16
2023-01-03T01:21:48.896Z,82.55
2023-01-03T01:24:18.170Z,82.44
2023-01-03T01:26:46.087Z,82.66
2023-01-03T01:29:13.721Z,82.85
2023-01-03T01:31:40.807Z,82.88
2023-01-03T01:34:07.706Z,82.56
2023-01-03T01:36:41.836Z,82.58
2023-01-03T01:39:13.879Z,82.53
2023-01-03T01:41:59.551Z,82.50
2023-01-03T01:44:52.134Z,82.43
2023-01-03T01:47:42.897Z,82.79
2023-01-03T01:50:24.640Z,82.70
2023-01-03T01:53:02.931Z,82.93
2023-01-03T01:55:40.552Z,83.35
2023-01-03T01:58:08.737Z,83.08
2023-01-03T02:00:36.409Z,83.17
2023-01-03T02:03:03.591Z,82.93
2023-01-03T02:05:32.570Z,83.17
2023-01-03T02:07:59.315Z,83.05
2023-01-03T02:10:41.558Z,83.77
2023-01-03T02:13:31.065Z,83.52
2023-01-03T02:16:08.597Z,82.95
2023-01-03T02:19:06.961Z,83.19
2023-01-03T02:21:33.315Z,83.34
2023-01-03T02:24:33.791Z,83.21
2023-01-03T02:27:14.251Z,83.65
2023-01-03T02:30:04.474Z,83.66
2023-01-03T02:32:36.924Z,84.31
2023-01-03T02:35:52.760Z,84.63
2023-01-03T02:38:38.941Z,84.03
2023-01-03T02:41:26.867Z,84.20
2023-01-03T02:44:05.719Z,84.05
2023-01-03T02:46:41.966Z,83.87
2023-01-03T02:49:15.588Z,83.85
2023-01-03T02:51:45.876Z,83.96
2023-01-03T02:54:19.859Z,84.49
2023-01-03T02:56:55.572Z,84.18
2023-01-03T02:59:35.913Z,83.83
2023-01-03T03:02:05.393Z,83.89
2023-01-03T03:04:35.126Z,84.42
2023-01-03T03:07:07.803Z,84.05
2023-01-03T03:09:54.559Z,83.60
2023-01-03T03:12:42.112Z,83.94
2023-01-03T03:15:12.405Z,83.19
2023-01-03T03:17:40.953Z,83.71
2023-01-03T03:20:34.750Z,84.01
2023-01-03T03:23:27.185Z,83.25
2023-01-03T03:26:18.009Z,83.85
2023-01-03T03:28:49.410Z,83.77
2023-01-03T03:31:19.454Z,83.15
2023-01-03T03:33:53.929Z,83.66
2023-01-03T03:36:35.654Z,83.30
2023-01-03T03:39:07.073Z,83.10
2023-01-03T03:42:05.659Z,83.31
2023-01-03T03:45:00.882Z,83.71
2023-01-03T03:47:42.949Z,83.32
2023-01-03T03:50:31.454Z,83.35
2023-01-03T03:53:01.888Z,83.91
2023-01-03T03:55:35.736Z,83.77
2023-01-03T03:58:08.085Z,83.33
2023-01-03T04:00:39.575Z,83.93
2023-01-03T04:03:07.981Z,83.70
2023-01-03T04:05:40.305Z,83.43
2023-01-03T04:08:07.609Z,84.09
2023-01-03T04:10:37.968Z,83.75
2023-01-03T04:13:05.321Z,83.72
2023-01-03T04:15:31.768Z,83.37
2023-01-03T04:17:58.262Z,84.05
2023-01-03T04:20:25.307Z,84.05
2023-01-03T04:22:51.722Z,83.54
2023-01-03T04:25:18.172Z,83.46
2023-01-03T04:27:44.607Z,83.21
2023-01-03T04:30:11.714Z,84.00
2023-01-03T04:32:38.368Z,83.45
2023-01-03T04:35:05.241Z,83.86
2023-01-03T04:37:32.252Z,84.11
2023-01-03T04:39:58.653Z,83.71
2023-01-03T04:42:44.540Z,84.04
2023-01-03T04:45:11.329Z,83.29
2023-01-03T04:47:37.733Z,83.31
2023-01-03T04:50:04.558Z,84.27
2023-01-03T04:52:30.963Z,83.67
2023-01-03T04:54:57.394Z,83.37
2023-01-03T04:57:23.783Z,83.45
2023-01-03T04:59:50.212Z,84.01
2023-01-03T05:02:16.765Z,84.05
2023-01-03T05:04:43.365Z,83.17
2023-01-03T05:07:09.840Z,83.30
2023-01-03T05:09:36.258Z,83.13
2023-01-03T05:12:02.714Z,83.41
2023-01-03T05:14:29.131Z,83.21
2023-01-03T05:16:55.605Z,83.20
2023-01-03T05:19:22.097Z,83.39
2023-01-03T05:22:07.101Z,83.67
2023-01-03T05:24:56.284Z,83.98
2023-01-03T05:27:23.013Z,83.46
2023-01-03T05:29:53.371Z,83.84
2023-01-03T05:32:20.656Z,83.94
2023-01-03T05:34:47.118Z,83.82
2023-01-03T05:37:13.884Z,84.03
2023-01-03T05:39:40.283Z,83.20
2023-01-03T05:42:06.695Z,84.01
2023-01-03T05:44:34.136Z,83.36
2023-01-03T05:47:02.788Z,84.03
2023-01-03T05:49:29.268Z,84.02
2023-01-03T05:51:55.714Z,83.44
2023-01-03T05:54:22.168Z,83.91
2023-01-03T05:56:48.683Z,83.69
2023-01-03T05:59:15.917Z,83.68
2023-01-03T06:01:42.469Z,83.90
2023-01-03T06:04:09.093Z,83.45
2023-01-03T06:06:35.579Z,84.54
2023-01-03T06:09:01.974Z,83.61
2023-01-03T06:11:28.466Z,83.65
2023-01-03T06:13:54.894Z,83.85
2023-01-03T06:16:40.124Z,84.05
2023-01-03T06:19:07.948Z,83.90
2023-01-03T06:21:35.522Z,83.94
2023-01-03T06:24:02.092Z,84.30
2023-01-03T06:26:28.577Z,84.34
2023-01-03T06:28:55.126Z,83.58
2023-01-03T06:31:21.560Z,83.67
2023-01-03T06:33:48.415Z,83.69
2023-01-03T06:36:18.515Z,83.97
2023-01-03T06:38:45.552Z,83.91
2023-01-03T06:41:12.673Z,83.83
2023-01-03T06:43:39.263Z,84.06
2023-01-03T06:46:44.227Z,84.18
2023-01-03T06:49:36.257Z,84.20
2023-01-03T06:52:23.254Z,84.46
2023-01-03T06:54:49.793Z,84.02
2023-01-03T06:57:26.602Z,84.12
2023-01-03T06:59:54.601Z,84.91
2023-01-03T07:02:21.143Z,84.74
2023-01-03T07:04:47.633Z,84.41
2023-01-03T07:07:14.076Z,84.33
2023-01-03T07:09:40.485Z,83.99
2023-01-03T07:12:27.207Z,84.03
2023-01-03T07:14:53.603Z,83.69
2023-01-03T07:17:20.046Z,84.82
2023-01-03T07:19:46.483Z,84.41
2023-01-03T07:22:12.924Z,84.30
2023-01-03T07:24:39.358Z,84.48
2023-01-03T07:27:05.800Z,84.22
2023-01-03T07:29:32.217Z,84.87
2023-01-03T07:31:59.063Z,83.75
2023-01-03T07:34:25.693Z,84.29
2023-01-03T07:36:52.130Z,83.90
2023-01-03T07:39:18.625Z,84.29
2023-01-03T07:42:03.864Z,85.02
2023-01-03T07:44:30.339Z,84.30
2023-01-03T07:46:56.817Z,84.56
2023-01-03T07:49:23.318Z,83.66
2023-01-03T07:51:49.820Z,85.01
2023-01-03T07:54:16.218Z,84.73
2023-01-03T07:56:42.655Z,85.01
2023-01-03T07:59:09.049Z,84.62
2023-01-03T08:01:35.569Z,85.48
2023-01-03T08:04:02.151Z,84.92
2023-01-03T08:06:28.577Z,85.38
2023-01-03T08:09:13.619Z,84.57
2023-01-03T08:11:58.999Z,84.78
2023-01-03T08:14:26.958Z,84.47
2023-01-03T08:16:54.248Z,84.53
2023-01-03T08:19:20.681Z,85.07
2023-01-03T08:21:47.126Z,84.92
2023-01-03T08:24:13.608Z,84.79
2023-01-03T08:26:40.103Z,84.94
2023-01-03T08:29:06.959Z,84.49
2023-01-03T08:31:37.438Z,85.28
2023-01-03T08:34:13.598Z,84.88
2023-01-03T08:36:48.997Z,84.55
2023-01-03T08:39:22.922Z,85.05
2023-01-03T08:41:55.401Z,84.64
2023-01-03T08:44:21.833Z,85.17
2023-01-03T08:46:51.207Z,85.18
2023-01-03T08:49:18.861Z,84.70
2023-01-03T08:51:45.609Z,84.89
2023-01-03T08:54:12.091Z,84.92
2023-01-03T08:56:39.713Z,84.27
2023-01-03T08:59:06.548Z,84.60
2023-01-03T09:01:33.700Z,83.91
2023-01-03T09:04:00.269Z,84.42
2023-01-03T09:06:26.777Z,84.43
2023-01-03T09:08:53.237Z,83.94
2023-01-03T09:11:19.713Z,83.41
2023-01-03T09:13:46.128Z,82.84
2023-01-03T09:16:14.209Z,82.67
2023-01-03T09:18:41.043Z,82.65
2023-01-03T09:21:08.489Z,82.67
2023-01-03T09:23:36.087Z,82.33
2023-01-03T09:26:03.127Z,82.19
2023-01-03T09:28:29.629Z,82.40
2023-01-03T09:30:56.205Z,82.86
2023-01-03T09:33:22.759Z,82.44
2023-01-03T09:35:51.367Z,81.59
2023-01-03T09:38:17.813Z,81.77
2023-01-03T09:40:46.135Z,82.14
2023-01-03T09:43:24.774Z,82.16
2023-01-03T09:45:55.185Z,82.21
2023-01-03T09:48:35.765Z,81.53
2023-01-03T09:51:19.729Z,81.54
2023-01-03T09:54:07.318Z,81.54
2023-01-03T09:56:52.184Z,80.71
2023-01-03T09:59:37.040Z,80.78
2023-01-03T10:02:41.897Z,79.95
2023-01-03T10:05:16.665Z,79.85
2023-01-03T10:08:11.165Z,80.33
2023-01-03T10:10:42.937Z,79.59
2023-01-03T10:13:33.445Z,79.18
2023-01-03T10:16:19.233Z,79.14
2023-01-03T10:19:21.767Z,78.98
2023-01-03T10:22:08.180Z,78.75
2023-01-03T10:24:46.214Z,78.80
2023-01-03T10:27:13.470Z,78.06
2023-01-03T10:29:40.035Z,77.82
2023-01-03T10:32:40.064Z,77.19
2023-01-03T10:35:20.607Z,76.97
2023-01-03T10:37:48.272Z,76.73
2023-01-03T10:40:15.156Z,76.68
2023-01-03T10:42:43.623Z,75.90
2023-01-03T10:45:14.404Z,75.35
2023-01-03T10:47:41.343Z,74.74
2023-01-03T10:50:18.783Z,74.65
2023-01-03T10:52:45.411Z,73.91
2023-01-03T10:55:18.444Z,73.77
2023-01-03T10:58:16.251Z,72.91
2023-01-03T11:00:43.409Z,72.75
2023-01-03T11:03:17.022Z,72.11
2023-01-03T11:05:47.240Z,71.88
2023-01-03T11:08:17.419Z,71.63
2023-01-03T11:10:52.719Z,71.19
2023-01-03T11:13:31.213Z,70.75
2023-01-03T11:16:00.113Z,71.00
2023-01-03T11:18:28.187Z,70.83
2023-01-03T11:21:08.718Z,70.58
2023-01-03T11:23:50.755Z,70.58
2023-01-03T11:26:56.551Z,70.88
2023-01-03T11:29:47.791Z,70.51
2023-01-03T11:32:42.760Z,70.49
2023-01-03T11:35:23.499Z,69.72
2023-01-03T11:38:02.302Z,69.33
2023-01-03T11:40:44.424Z,69.60
2023-01-03T11:43:32.867Z,69.94
2023-01-03T11:46:16.539Z,70.04
2023-01-03T11:48:57.916Z,69.63
2023-01-03T11:51:56.950Z,69.54
2023-01-03T11:55:19.981Z,69.72
2023-01-03T11:57:58.175Z,69.22
2023-01-03T12:00:36.595Z,69.42
2023-01-03T12:03:33.752Z,69.53
2023-01-03T12:06:00.266Z,69.56
2023-01-03T12:09:04.943Z,69.83
2023-01-03T12:11:45.416Z,70.21
2023-01-03T12:14:24.425Z,70.44
2023-01-03T12:17:09.383Z,70.43
2023-01-03T12:19:43.624Z,71.04
2023-01-03T12:22:13.052Z,69.65
2023-01-03T12:25:05.978Z,68.75
2023-01-03T12:27:36.310Z,68.16
2023-01-03T12:30:07.457Z,68.64
2023-01-03T12:32:47.623Z,68.61
2023-01-03T12:35:38.153Z,68.67
2023-01-03T12:38:06.161Z,68.90
2023-01-03T12:40:40.898Z,68.74
2023-01-03T12:43:16.708Z,69.21
2023-01-03T12:46:12.845Z,69.05
2023-01-03T12:48:56.537Z,68.30
2023-01-03T12:51:28.076Z,67.24
2023-01-03T12:54:22.390Z,66.79
2023-01-03T12:57:00.530Z,66.09
2023-01-03T13:00:05.610Z,64.97
2023-01-03T13:02:48.948Z,63.88
2023-01-03T13:05:27.511Z,63.84
2023-01-03T13:08:17.547Z,63.54
2023-01-03T13:10:49.193Z,63.75
2023-01-03T13:13:18.882Z,63.56
2023-01-03T13:15:46.507Z,62.00
2023-01-03T13:18:30.580Z,60.87
2023-01-03T13:20:57.246Z,59.87
2023-01-03T13:23:59.640Z,59.11
2023-01-03T13:26:29.324Z,58.58
2023-01-03T13:29:33.005Z,57.46
2023-01-03T13:32:15.469Z,57.02
2023-01-03T13:34:42.740Z,57.03
2023-01-03T13:37:15.168Z,56.59
2023-01-03T13:39:51.948Z,54.98
2023-01-03T13:42:33.597Z,54.25
2023-01-03T13:45:15.462Z,53.63
2023-01-03T13:47:47.553Z,52.57
2023-01-03T13:50:23.105Z,52.87
2023-01-03T13:52:57.971Z,52.77
2023-01-03T13:55:33.715Z,52.78
2023-01-03T13:58:00.508Z,53.68
2023-01-03T14:00:29.601Z,53.49
2023-01-03T14:03:18.097Z,53.46
2023-01-03T14:06:05.422Z,53.71
2023-01-03T14:08:51.115Z,53.57
2023-01-03T14:11:46.085Z,54.57
2023-01-03T14:14:16.478Z,54.80
2023-01-03T14:16:51.994Z,55.36
2023-01-03T14:19:32.455Z,56.01
2023-01-03T14:22:27.892Z,55.99
2023-01-03T14:24:57.455Z,56.10
2023-01-03T14:27:44.334Z,56.78
2023-01-03T14:30:21.252Z,56.89
2023-01-03T14:32:47.969Z,57.59
2023-01-03T14:35:36.258Z,57.41
2023-01-03T14:38:06.755Z,58.34
2023-01-03T14:40:33.682Z,58.28
2023-01-03T14:43:03.736Z,59.11
2023-01-03T14:45:30.203Z,59.83
2023-01-03T14:47:56.681Z,60.31
2023-01-03T14:50:27.643Z,60.23
2023-01-03T14:53:03.528Z,60.21
2023-01-03T14:55:33.731Z,61.18
2023-01-03T14:58:14.749Z,62.48
2023-01-03T15:00:41.977Z,63.82
2023-01-03T15:03:12.980Z,65.06
2023-01-03T15:05:43.481Z,66.10
2023-01-03T15:08:25.234Z,67.08
2023-01-03T15:10:55.740Z,67.81
2023-01-03T15:13:30.826Z,68.74
2023-01-03T15:16:00.157Z,69.55
2023-01-03T15:18:31.839Z,70.43
2023-01-03T15:21:00.683Z,70.97
2023-01-03T15:23:40.560Z,71.38
2023-01-03T15:26:18.367Z,72.27
2023-01-03T15:28:54.437Z,72.76
2023-01-03T15:31:24.028Z,73.00
2023-01-03T15:34:23.651Z,73.72
2023-01-03T15:37:16.783Z,74.31
2023-01-03T15:39:48.394Z,74.78
2023-01-03T15:42:49.159Z,75.11
2023-01-03T15:45:28.430Z,75.75
2023-01-03T15:47:59.445Z,75.35
2023-01-03T15:50:37.665Z,75.93
2023-01-03T15:53:04.093Z,75.88
2023-01-03T15:55:30.803Z,75.96
2023-01-03T15:57:57.264Z,76.62
2023-01-03T16:00:26.005Z,76.83
2023-01-03T16:02:52.709Z,76.84
2023-01-03T16:05:23.310Z,77.14
2023-01-03T16:07:50.801Z,77.49
2023-01-03T16:10:17.267Z,77.18
2023-01-03T16:12:43.850Z,77.89
2023-01-03T16:15:18.607Z,77.94
2023-01-03T16:17:45.681Z,78.50
2023-01-03T16:20:17.793Z,78.29
2023-01-03T16:22:57.575Z,78.86
2023-01-03T16:25:27.334Z,78.97
2023-01-03T16:27:53.789Z,78.97
2023-01-03T16:30:20.188Z,79.47
2023-01-03T16:32:46.655Z,80.04
2023-01-03T16:35:16.859Z,79.90
2023-01-03T16:37:43.753Z,79.50
2023-01-03T16:40:14.839Z,79.32
2023-01-03T16:42:41.325Z,79.81
2023-01-03T16:45:08.285Z,79.28
2023-01-03T16:47:35.674Z,79.20
2023-01-03T16:50:11.769Z,79.89
2023-01-03T16:52:43.132Z,79.55
2023-01-03T16:55:18.356Z,80.14
2023-01-03T16:57:48.864Z,80.44
2023-01-03T17:00:23.404Z,80.41
2023-01-03T17:02:50.039Z,81.29
2023-01-03T17:05:16.912Z,81.29
2023-01-03T17:07:46.663Z,81.28
2023-01-03T17:10:27.096Z,80.96
2023-01-03T17:12:54.681Z,80.04
2023-01-03T17:15:21.278Z,79.78
2023-01-03T17:17:47.713Z,80.43
2023-01-03T17:20:16.783Z,80.97
2023-01-03T17:22:49.022Z,81.15
2023-01-03T17:25:15.454Z,80.30
2023-01-03T17:27:44.153Z,81.67
2023-01-03T17:30:18.434Z,81.78
2023-01-03T17:32:45.002Z,80.65
2023-01-03T17:35:15.652Z,81.09
2023-01-03T17:38:13.999Z,81.85
2023-01-03T17:40:34.022Z,81.99
2023-01-03T17:43:02.483Z,81.08
2023-01-03T17:45:47.909Z,80.53
2023-01-03T17:48:33.216Z,81.74
2023-01-03T17:51:01.507Z,81.75
2023-01-03T17:53:28.463Z,81.58
2023-01-03T17:55:54.950Z,82.09
2023-01-03T17:58:37.911Z,82.11
2023-01-03T18:01:05.942Z,82.26
2023-01-03T18:03:32.569Z,82.57
2023-01-03T18:06:03.200Z,81.30
2023-01-03T18:08:29.680Z,82.19
2023-01-03T18:10:56.875Z,82.00
2023-01-03T18:13:35.709Z,82.32
2023-01-03T18:16:02.623Z,81.92
2023-01-03T18:18:29.312Z,81.61
2023-01-03T18:20:56.979Z,82.21
2023-01-03T18:23:28.236Z,81.53
2023-01-03T18:26:06.308Z,81.79
2023-01-03T18:28:33.475Z,82.27
2023-01-03T18:31:00.131Z,81.63
2023-01-03T18:33:26.661Z,81.99
2023-01-03T18:35:53.414Z,81.70
2023-01-03T18:38:25.788Z,81.60
2023-01-03T18:40:57.477Z,82.43
2023-01-03T18:43:28.946Z,81.27
2023-01-03T18:45:55.511Z,81.88
2023-01-03T18:48:22.451Z,82.64
2023-01-03T18:50:57.784Z,83.08
2023-01-03T18:53:28.453Z,83.13
2023-01-03T18:55:55.049Z,83.64
2023-01-03T18:58:35.049Z,83.87
2023-01-03T19:01:02.424Z,83.55
2023-01-03T19:03:31.866Z,83.62
2023-01-03T19:06:00.261Z,83.80
2023-01-03T19:08:30.428Z,84.16
2023-01-03T19:11:03.791Z,83.96
2023-01-03T19:13:49.962Z,83.61
2023-01-03T19:16:25.904Z,83.55
2023-01-03T19:18:53.016Z,83.93
2023-01-03T19:21:20.936Z,82.86
2023-01-03T19:23:59.084Z,83.41
2023-01-03T19:26:30.655Z,83.14
2023-01-03T19:29:01.187Z,82.51
2023-01-03T19:31:38.105Z,82.53
2023-01-03T19:34:26.064Z,82.29
2023-01-03T19:36:52.985Z,82.42
2023-01-03T19:39:25.355Z,82.02
2023-01-03T19:42:16.908Z,81.62
2023-01-03T19:44:43.762Z,81.64
2023-01-03T19:47:15.825Z,81.65
2023-01-03T19:49:43.810Z,81.66
2023-01-03T19:52:10.517Z,81.85
2023-01-03T19:54:36.957Z,80.94
2023-01-03T19:57:03.451Z,81.64
2023-01-03T19:59:36.398Z,81.70
2023-01-03T20:02:26.328Z,82.41
2023-01-03T20:04:53.113Z,83.40
2023-01-03T20:07:19.636Z,83.42
2023-01-03T20:09:46.047Z,84.55
2023-01-03T20:12:14.917Z,84.88
2023-01-03T20:14:42.817Z,85.04
2023-01-03T20:17:20.948Z,85.33
2023-01-03T20:19:47.882Z,84.51
2023-01-03T20:22:37.380Z,85.23
2023-01-03T20:25:00.817Z,84.91
2023-01-03T20:27:27.367Z,85.02
2023-01-03T20:29:54.356Z,84.68
2023-01-03T20:32:20.787Z,84.67
2023-01-03T20:34:47.555Z,83.89
2023-01-03T20:37:18.416Z,84.62
2023-01-03T20:39:44.957Z,84.20
2023-01-03T20:42:22.815Z,83.79
2023-01-03T20:44:49.318Z,84.05
2023-01-03T20:47:22.181Z,83.95
2023-01-03T20:49:49.317Z,84.62
2023-01-03T20:52:16.963Z,84.28
2023-01-03T20:54:43.484Z,84.95
2023-01-03T20:57:15.601Z,85.48
2023-01-03T20:59:42.293Z,86.01
2023-01-03T21:02:12.534Z,85.52
2023-01-03T21:04:39.773Z,86.46
2023-01-03T21:07:11.537Z,86.88
2023-01-03T21:09:38.415Z,87.19
2023-01-03T21:12:05.060Z,87.36
2023-01-03T21:14:31.462Z,87.63
2023-01-03T21:16:57.964Z,86.88
2023-01-03T21:19:24.700Z,87.69
2023-01-03T21:21:54.320Z,87.88
2023-01-03T21:24:23.066Z,87.36
2023-01-03T21:26:49.540Z,87.66
2023-01-03T21:29:16.032Z,87.59
2023-01-03T21:31:43.899Z,87.47
2023-01-03T21:34:19.170Z,87.19
2023-01-03T21:36:46.140Z,86.88
2023-01-03T21:39:12.591Z,86.86
2023-01-03T21:41:59.203Z,86.67
2023-01-03T21:44:25.713Z,87.10
2023-01-03T21:46:52.571Z,87.13
2023-01-03T21:49:19.281Z,87.17
2023-01-03T21:51:45.717Z,87.21
2023-01-03T21:54:12.219Z,86.92
2023-01-03T21:56:45.384Z,87.12
2023-01-03T21:59:15.308Z,87.32
2023-01-03T22:02:02.376Z,87.60
2023-01-03T22:04:29.134Z,86.97
2023-01-03T22:07:00.437Z,87.22
2023-01-03T22:09:46.636Z,87.28
2023-01-03T22:12:15.618Z,87.25
2023-01-03T22:14:43.407Z,87.06
2023-01-03T22:17:09.847Z,87.84
2023-01-03T22:19:36.238Z,87.79
2023-01-03T22:22:02.779Z,87.62
2023-01-03T22:24:29.250Z,87.92
2023-01-03T22:26:55.684Z,87.43
2023-01-03T22:29:22.082Z,87.77
2023-01-03T22:31:48.581Z,87.42
2023-01-03T22:34:15.064Z,87.68
2023-01-03T22:36:41.493Z,87.50
2023-01-03T22:39:07.969Z,87.42
2023-01-03T22:41:34.473Z,87.49
2023-01-03T22:44:00.895Z,87.43
2023-01-03T22:46:27.541Z,87.35
2023-01-03T22:48:55.157Z,87.55
2023-01-03T22:51:21.975Z,87.47
2023-01-03T22:53:49.122Z,87.80
2023-01-03T22:56:17.169Z,87.81
2023-01-03T22:58:44.857Z,88.29
2023-01-03T23:01:15.965Z,88.09
2023-01-03T23:03:44.054Z,87.54
2023-01-03T23:06:13.271Z,88.16
2023-01-03T23:08:40.069Z,87.88
2023-01-03T23:11:33.233Z,88.15
2023-01-03T23:14:01.829Z,87.84
2023-01-03T23:16:28.256Z,88.31
2023-01-03T23:18:54.682Z,87.71
2023-01-03T23:21:21.114Z,88.11
2023-01-03T23:23:50.906Z,88.16
2023-01-03T23:26:17.784Z,88.41
2023-01-03T23:28:44.583Z,88.29
2023-01-03T23:31:11.149Z,88.00
2023-01-03T23:33:38.753Z,88.32
2023-01-03T23:36:10.873Z,88.10
2023-01-03T23:38:37.340Z,88.42
2023-01-03T23:41:09.284Z,88.56
2023-01-03T23:43:36.050Z,88.51
2023-01-03T23:46:02.999Z,88.91
2023-01-03T23:48:29.616Z,89.03
2023-01-03T23:51:03.784Z,90.00
2023-01-03T23:53:30.423Z,90.33
2023-01-03T23:55:57.779Z,90.51
2023-01-03T23:58:24.259Z,90.63
